createdAt,value
2023-05-04T00:02:10.155Z,61.99
2023-05-04T00:04:36.992Z,62.14
2023-05-04T00:07:04.625Z,61.98
2023-05-04T00:09:31.737Z,62.27
2023-05-04T00:11:58.457Z,62.17
2023-05-04T00:14:25.188Z,62.26
2023-05-04T00:16:51.902Z,62.89
2023-05-04T00:19:19.588Z,62.74
2023-05-04T00:21:46.201Z,62.81
2023-05-04T00:24:13.166Z,63.38
2023-05-04T00:26:40.553Z,62.92
2023-05-04T00:29:07.622Z,63.06
2023-05-04T00:31:35.176Z,63.40
2023-05-04T00:34:02.477Z,63.45
2023-05-04T00:36:29.192Z,63.51
2023-05-04T00:38:56.289Z,63.55
2023-05-04T00:41:23.292Z,63.44
2023-05-04T00:43:50.592Z,63.45
2023-05-04T00:46:17.444Z,63.89
2023-05-04T00:48:48.875Z,63.76
2023-05-04T00:51:16.885Z,63.62
2023-05-04T00:53:44.273Z,63.78
2023-05-04T00:56:11.799Z,63.93
2023-05-04T00:58:39.211Z,63.92
2023-05-04T01:01:05.958Z,63.72
2023-05-04T01:03:33.817Z,64.11
2023-05-04T01:06:30.703Z,64.00
2023-05-04T01:09:11.139Z,64.15
2023-05-04T01:11:44.588Z,63.97
2023-05-04T01:14:14.970Z,64.09
2023-05-04T01:16:41.507Z,64.21
2023-05-04T01:19:08.459Z,64.27
2023-05-04T01:21:37.143Z,64.13
2023-05-04T01:24:04.162Z,64.10
2023-05-04T01:26:36.818Z,64.09
2023-05-04T01:29:14.582Z,64.18
2023-05-04T01:31:43.383Z,64.06
2023-05-04T01:34:11.318Z,64.51
2023-05-04T01:36:38.807Z,64.79
2023-05-04T01:39:05.954Z,64.51
2023-05-04T01:41:32.638Z,64.82
2023-05-04T01:44:00.397Z,64.73
2023-05-04T01:46:30.053Z,64.91
2023-05-04T01:48:56.548Z,65.32
2023-05-04T01:51:22.997Z,64.53
2023-05-04T01:53:49.687Z,64.59
2023-05-04T01:56:16.608Z,64.66
2023-05-04T01:58:43.027Z,64.66
2023-05-04T02:01:09.496Z,64.79
2023-05-04T02:03:36.472Z,65.02
2023-05-04T02:06:03.122Z,64.78
2023-05-04T02:08:31.438Z,64.92
2023-05-04T02:10:58.252Z,65.24
2023-05-04T02:13:24.958Z,64.91
2023-05-04T02:15:52.149Z,64.95
2023-05-04T02:18:18.627Z,65.68
2023-05-04T02:20:45.297Z,65.19
2023-05-04T02:23:11.704Z,65.29
2023-05-04T02:25:44.376Z,65.15
2023-05-04T02:28:11.089Z,65.69
2023-05-04T02:30:37.889Z,65.59
2023-05-04T02:33:04.507Z,65.37
2023-05-04T02:35:31.881Z,65.48
2023-05-04T02:37:58.409Z,66.03
2023-05-04T02:40:25.125Z,65.90
2023-05-04T02:42:52.175Z,65.93
2023-05-04T02:45:18.918Z,65.90
2023-05-04T02:47:46.642Z,65.98
2023-05-04T02:50:16.904Z,65.82
2023-05-04T02:52:45.752Z,66.27
2023-05-04T02:55:12.796Z,66.25
2023-05-04T02:57:39.808Z,66.17
2023-05-04T03:00:07.457Z,66.07
2023-05-04T03:02:36.777Z,66.82
2023-05-04T03:05:03.495Z,66.50
2023-05-04T03:07:30.317Z,66.41
2023-05-04T03:09:57.029Z,66.48
2023-05-04T03:12:27.247Z,66.53
2023-05-04T03:14:53.667Z,66.58
2023-05-04T03:17:21.621Z,66.57
2023-05-04T03:19:48.052Z,66.14
2023-05-04T03:22:15.128Z,66.99
2023-05-04T03:24:41.578Z,66.76
2023-05-04T03:27:08.278Z,66.65
2023-05-04T03:29:35.583Z,66.71
2023-05-04T03:32:06.117Z,66.22
2023-05-04T03:34:32.690Z,66.67
2023-05-04T03:37:01.115Z,66.67
2023-05-04T03:39:27.630Z,67.33
2023-05-04T03:41:54.157Z,66.69
2023-05-04T03:44:20.884Z,67.48
2023-05-04T03:46:47.346Z,67.38
2023-05-04T03:49:14.146Z,67.30
2023-05-04T03:51:41.312Z,67.73
2023-05-04T03:54:08.315Z,67.49
2023-05-04T03:56:35.000Z,67.68
2023-05-04T03:59:02.233Z,67.92
2023-05-04T04:01:28.790Z,67.75
2023-05-04T04:03:55.552Z,67.77
2023-05-04T04:06:23.030Z,67.73
2023-05-04T04:08:51.038Z,67.69
2023-05-04T04:11:17.729Z,67.39
2023-05-04T04:13:44.202Z,67.83
2023-05-04T04:16:10.924Z,68.03
2023-05-04T04:18:38.129Z,68.12
2023-05-04T04:21:04.579Z,68.28
2023-05-04T04:23:30.998Z,67.79
2023-05-04T04:25:58.425Z,67.93
2023-05-04T04:28:24.883Z,68.11
2023-05-04T04:30:51.664Z,67.82
2023-05-04T04:33:18.108Z,68.06
2023-05-04T04:35:45.369Z,68.04
2023-05-04T04:38:12.216Z,68.09
2023-05-04T04:40:38.640Z,68.10
2023-05-04T04:43:05.874Z,68.02
2023-05-04T04:45:33.793Z,68.12
2023-05-04T04:48:01.255Z,67.88
2023-05-04T04:50:29.495Z,68.21
2023-05-04T04:52:56.339Z,68.21
2023-05-04T04:55:23.950Z,68.57
2023-05-04T04:57:51.219Z,68.48
2023-05-04T05:00:18.593Z,68.39
2023-05-04T05:02:45.650Z,68.78
2023-05-04T05:05:13.292Z,68.55
2023-05-04T05:07:40.059Z,69.25
2023-05-04T05:10:08.947Z,68.96
2023-05-04T05:12:35.761Z,68.93
2023-05-04T05:15:04.443Z,68.63
2023-05-04T05:17:31.401Z,68.28
2023-05-04T05:19:58.130Z,68.84
2023-05-04T05:22:24.855Z,68.55
2023-05-04T05:24:51.536Z,69.01
2023-05-04T05:27:18.301Z,68.77
2023-05-04T05:29:45.122Z,68.12
2023-05-04T05:32:11.908Z,68.02
2023-05-04T05:34:38.973Z,67.44
2023-05-04T05:37:06.055Z,67.60
2023-05-04T05:39:32.764Z,67.57
2023-05-04T05:41:59.686Z,67.16
2023-05-04T05:44:26.525Z,67.07
2023-05-04T05:46:53.205Z,66.77
2023-05-04T05:49:19.790Z,66.56
2023-05-04T05:51:46.855Z,66.45
2023-05-04T05:54:13.593Z,65.61
2023-05-04T05:56:40.308Z,65.48
2023-05-04T05:59:07.630Z,64.76
2023-05-04T06:01:34.376Z,64.51
2023-05-04T06:04:01.341Z,64.58
2023-05-04T06:06:27.884Z,63.79
2023-05-04T06:08:57.536Z,63.58
2023-05-04T06:11:24.148Z,63.89
2023-05-04T06:13:50.645Z,64.13
2023-05-04T06:16:17.258Z,63.60
2023-05-04T06:18:43.823Z,63.18
2023-05-04T06:21:11.268Z,63.45
2023-05-04T06:23:37.925Z,62.83
2023-05-04T06:26:06.167Z,62.05
2023-05-04T06:28:32.890Z,62.45
2023-05-04T06:30:59.434Z,61.74
2023-05-04T06:33:27.561Z,61.57
2023-05-04T06:35:54.311Z,61.37
2023-05-04T06:38:21.576Z,61.43
2023-05-04T06:40:48.632Z,60.70
2023-05-04T06:43:15.362Z,60.79
2023-05-04T06:45:43.242Z,61.01
2023-05-04T06:48:09.984Z,60.21
2023-05-04T06:50:36.506Z,59.77
2023-05-04T06:53:04.830Z,59.50
2023-05-04T06:55:32.112Z,59.43
2023-05-04T06:57:58.644Z,59.10
2023-05-04T07:00:26.149Z,59.11
2023-05-04T07:02:53.915Z,59.11
2023-05-04T07:05:24.207Z,59.38
2023-05-04T07:07:51.476Z,58.68
2023-05-04T07:10:19.428Z,57.84
2023-05-04T07:12:46.718Z,57.92
2023-05-04T07:15:13.213Z,58.08
2023-05-04T07:17:40.465Z,58.19
2023-05-04T07:20:07.737Z,57.73
2023-05-04T07:22:34.576Z,57.75
2023-05-04T07:25:03.392Z,57.39
2023-05-04T07:27:30.692Z,57.18
2023-05-04T07:29:57.599Z,56.64
2023-05-04T07:32:24.553Z,57.17
2023-05-04T07:34:51.183Z,56.92
2023-05-04T07:37:20.208Z,56.60
2023-05-04T07:39:46.995Z,56.18
2023-05-04T07:42:13.720Z,56.10
2023-05-04T07:44:41.316Z,55.55
2023-05-04T07:47:07.872Z,55.59
2023-05-04T07:49:34.354Z,56.55
2023-05-04T07:52:00.949Z,56.79
2023-05-04T07:54:27.414Z,55.88
2023-05-04T07:56:53.901Z,54.67
2023-05-04T07:59:21.009Z,54.99
2023-05-04T08:01:48.253Z,55.63
2023-05-04T08:04:14.676Z,56.88
2023-05-04T08:06:42.004Z,57.28
2023-05-04T08:09:09.284Z,56.48
2023-05-04T08:11:36.085Z,57.44
2023-05-04T08:14:02.897Z,57.30
2023-05-04T08:16:30.050Z,57.37
2023-05-04T08:18:57.538Z,57.70
2023-05-04T08:21:24.226Z,57.30
2023-05-04T08:23:51.506Z,57.81
2023-05-04T08:26:17.917Z,56.30
2023-05-04T08:28:46.171Z,56.70
2023-05-04T08:31:13.403Z,57.52
2023-05-04T08:33:40.343Z,57.37
2023-05-04T08:36:08.423Z,56.71
2023-05-04T08:38:35.459Z,56.30
2023-05-04T08:41:06.525Z,54.98
2023-05-04T08:43:36.728Z,55.19
2023-05-04T08:46:05.427Z,55.51
2023-05-04T08:48:34.019Z,56.04
2023-05-04T08:51:02.026Z,54.63
2023-05-04T08:53:31.460Z,55.24
2023-05-04T08:56:04.743Z,55.62
2023-05-04T08:58:31.804Z,56.08
2023-05-04T09:01:01.304Z,54.44
2023-05-04T09:03:29.743Z,56.01
2023-05-04T09:05:58.836Z,55.53
2023-05-04T09:08:25.594Z,54.92
2023-05-04T09:10:52.319Z,54.76
2023-05-04T09:13:18.863Z,54.84
2023-05-04T09:15:59.175Z,54.11
2023-05-04T09:18:43.700Z,53.38
2023-05-04T09:21:11.832Z,52.97
2023-05-04T09:23:54.040Z,52.71
2023-05-04T09:26:27.894Z,53.72
2023-05-04T09:28:54.634Z,53.18
2023-05-04T09:31:21.430Z,52.26
2023-05-04T09:33:48.106Z,51.97
2023-05-04T09:36:17.393Z,51.27
2023-05-04T09:38:44.396Z,51.82
2023-05-04T09:41:10.931Z,50.67
2023-05-04T09:43:41.829Z,51.99
2023-05-04T09:46:17.222Z,51.61
2023-05-04T09:48:55.080Z,51.65
2023-05-04T09:51:27.308Z,51.76
2023-05-04T09:53:54.068Z,51.44
2023-05-04T09:56:29.731Z,51.06
2023-05-04T09:59:00.237Z,51.33
2023-05-04T10:01:30.981Z,51.69
2023-05-04T10:03:58.224Z,52.13
2023-05-04T10:06:24.989Z,52.29
2023-05-04T10:08:52.252Z,51.66
2023-05-04T10:11:20.263Z,51.11
2023-05-04T10:13:49.723Z,49.98
2023-05-04T10:16:54.101Z,49.97
2023-05-04T10:20:05.812Z,50.43
2023-05-04T10:22:47.683Z,51.26
2023-05-04T10:25:35.473Z,50.05
2023-05-04T10:28:23.651Z,49.15
2023-05-04T10:30:56.971Z,49.66
2023-05-04T10:33:24.399Z,49.52
2023-05-04T10:35:55.436Z,48.05
2023-05-04T10:38:39.438Z,48.19
2023-05-04T10:41:20.518Z,48.03
2023-05-04T10:43:53.516Z,48.34
2023-05-04T10:46:23.985Z,49.39
2023-05-04T10:48:59.483Z,50.51
2023-05-04T10:51:35.696Z,47.75
2023-05-04T10:54:18.020Z,47.13
2023-05-04T10:56:44.447Z,48.26
2023-05-04T10:59:11.017Z,47.32
2023-05-04T11:01:46.579Z,46.91
2023-05-04T11:04:22.929Z,47.69
2023-05-04T11:07:03.415Z,46.54
2023-05-04T11:09:38.996Z,46.49
2023-05-04T11:12:07.096Z,46.35
2023-05-04T11:14:38.059Z,46.60
2023-05-04T11:17:27.731Z,47.07
2023-05-04T11:19:55.937Z,47.66
2023-05-04T11:22:22.542Z,47.56
2023-05-04T11:24:49.255Z,47.40
2023-05-04T11:27:25.576Z,47.36
2023-05-04T11:30:04.768Z,47.58
2023-05-04T11:32:46.943Z,45.17
2023-05-04T11:35:18.880Z,45.98
2023-05-04T11:37:48.240Z,45.23
2023-05-04T11:40:21.326Z,45.28
2023-05-04T11:42:50.243Z,44.85
2023-05-04T11:45:18.133Z,44.93
2023-05-04T11:47:47.225Z,43.60
2023-05-04T11:50:17.042Z,43.43
2023-05-04T11:52:44.769Z,42.48
2023-05-04T11:55:13.495Z,40.98
2023-05-04T11:57:40.354Z,41.57
2023-05-04T12:00:08.706Z,40.38
2023-05-04T12:02:36.179Z,40.08
2023-05-04T12:05:03.412Z,40.50
2023-05-04T12:07:29.941Z,40.33
2023-05-04T12:09:57.374Z,38.48
2023-05-04T12:12:35.217Z,35.49
2023-05-04T12:15:02.006Z,38.11
2023-05-04T12:17:39.504Z,36.75
2023-05-04T12:20:06.664Z,37.86
2023-05-04T12:22:35.438Z,38.06
2023-05-04T12:25:02.663Z,38.04
2023-05-04T12:27:29.071Z,38.24
2023-05-04T12:29:55.991Z,36.68
2023-05-04T12:32:22.570Z,37.23
2023-05-04T12:34:49.113Z,37.50
2023-05-04T12:37:15.849Z,33.93
2023-05-04T12:39:42.606Z,35.61
2023-05-04T12:42:09.112Z,36.47
2023-05-04T12:44:35.716Z,35.70
2023-05-04T12:47:02.100Z,35.80
2023-05-04T12:49:28.486Z,36.20
2023-05-04T12:51:57.776Z,35.80
2023-05-04T12:54:24.586Z,34.09
2023-05-04T12:56:51.364Z,34.87
2023-05-04T12:59:18.069Z,35.77
2023-05-04T13:01:44.653Z,36.19
2023-05-04T13:04:11.141Z,36.29
2023-05-04T13:06:37.749Z,35.76
2023-05-04T13:09:06.187Z,35.32
2023-05-04T13:11:32.701Z,35.36
2023-05-04T13:13:59.413Z,35.47
2023-05-04T13:16:28.167Z,35.70
2023-05-04T13:18:55.574Z,34.07
2023-05-04T13:21:22.645Z,32.65
2023-05-04T13:23:49.328Z,32.57
2023-05-04T13:26:16.008Z,31.22
2023-05-04T13:28:42.642Z,32.40
2023-05-04T13:31:10.174Z,33.59
2023-05-04T13:33:38.932Z,33.41
2023-05-04T13:36:07.041Z,31.49
2023-05-04T13:38:33.785Z,32.00
2023-05-04T13:41:00.297Z,32.02
2023-05-04T13:43:27.113Z,31.49
2023-05-04T13:45:53.543Z,31.60
2023-05-04T13:48:20.401Z,32.06
2023-05-04T13:50:46.902Z,31.92
2023-05-04T13:53:14.126Z,32.18
2023-05-04T13:55:40.951Z,32.05
2023-05-04T13:58:07.473Z,32.02
2023-05-04T14:00:33.926Z,32.93
2023-05-04T14:03:00.875Z,32.93
2023-05-04T14:05:27.641Z,32.12
2023-05-04T14:07:54.110Z,32.54
2023-05-04T14:10:21.346Z,32.67
2023-05-04T14:12:48.096Z,32.92
2023-05-04T14:15:16.662Z,33.13
2023-05-04T14:17:43.564Z,33.54
2023-05-04T14:20:13.208Z,31.83
2023-05-04T14:22:42.064Z,31.10
2023-05-04T14:25:09.573Z,31.97
2023-05-04T14:27:36.301Z,32.33
2023-05-04T14:30:04.105Z,31.42
2023-05-04T14:32:30.923Z,29.54
2023-05-04T14:35:06.658Z,30.21
2023-05-04T14:37:36.772Z,28.80
2023-05-04T14:40:13.570Z,29.96
2023-05-04T14:42:40.702Z,30.70
2023-05-04T14:45:08.433Z,31.40
2023-05-04T14:47:35.325Z,31.15
2023-05-04T14:50:03.329Z,29.52
2023-05-04T14:52:29.816Z,30.38
2023-05-04T14:54:56.269Z,30.25
2023-05-04T14:57:22.685Z,30.03
2023-05-04T14:59:49.196Z,29.81
2023-05-04T15:02:16.420Z,29.69
2023-05-04T15:04:44.098Z,30.50
2023-05-04T15:07:10.686Z,31.23
2023-05-04T15:09:38.193Z,31.72
2023-05-04T15:12:05.074Z,32.15
2023-05-04T15:14:31.828Z,33.11
2023-05-04T15:16:58.622Z,32.36
2023-05-04T15:19:25.131Z,32.96
2023-05-04T15:21:51.930Z,33.02
2023-05-04T15:24:18.696Z,32.75
2023-05-04T15:26:46.277Z,33.18
2023-05-04T15:29:12.884Z,32.47
2023-05-04T15:31:39.547Z,32.88
2023-05-04T15:34:06.001Z,33.10
2023-05-04T15:36:32.433Z,33.63
2023-05-04T15:38:58.858Z,33.89
2023-05-04T15:41:26.498Z,33.70
2023-05-04T15:43:52.956Z,33.81
2023-05-04T15:46:19.807Z,33.94
2023-05-04T15:48:46.196Z,34.23
2023-05-04T15:51:12.697Z,34.39
2023-05-04T15:53:39.719Z,34.57
2023-05-04T15:56:06.505Z,34.88
2023-05-04T15:58:33.606Z,34.77
2023-05-04T16:01:04.159Z,35.09
2023-05-04T16:03:32.040Z,34.57
2023-05-04T16:05:58.841Z,34.50
2023-05-04T16:08:25.899Z,34.52
2023-05-04T16:10:53.503Z,34.71
2023-05-04T16:13:20.941Z,34.95
2023-05-04T16:15:52.631Z,34.88
2023-05-04T16:18:19.545Z,35.41
2023-05-04T16:20:47.370Z,35.42
2023-05-04T16:23:17.749Z,35.24
2023-05-04T16:25:44.430Z,35.71
2023-05-04T16:28:11.190Z,35.72
2023-05-04T16:30:38.194Z,35.38
2023-05-04T16:33:04.834Z,35.04
2023-05-04T16:35:32.635Z,35.85
2023-05-04T16:37:59.352Z,36.29
2023-05-04T16:40:26.630Z,36.06
2023-05-04T16:42:53.014Z,35.96
2023-05-04T16:45:19.724Z,35.99
2023-05-04T16:47:46.931Z,36.00
2023-05-04T16:50:14.284Z,35.65
2023-05-04T16:52:41.243Z,35.63
2023-05-04T16:55:11.360Z,36.10
2023-05-04T16:57:38.718Z,35.93
2023-05-04T17:00:07.069Z,36.14
2023-05-04T17:02:34.007Z,36.34
2023-05-04T17:05:00.788Z,36.04
2023-05-04T17:07:27.495Z,35.39
2023-05-04T17:09:54.157Z,35.50
2023-05-04T17:12:23.204Z,35.57
2023-05-04T17:14:50.083Z,35.82
2023-05-04T17:17:16.636Z,35.79
2023-05-04T17:19:43.146Z,36.16
2023-05-04T17:22:11.409Z,36.51
2023-05-04T17:24:37.914Z,36.58
2023-05-04T17:27:05.005Z,36.16
2023-05-04T17:29:31.692Z,36.36
2023-05-04T17:31:58.288Z,36.55
2023-05-04T17:34:25.087Z,36.26
2023-05-04T17:36:51.610Z,36.21
2023-05-04T17:39:18.709Z,36.52
2023-05-04T17:41:48.803Z,36.78
2023-05-04T17:44:16.591Z,36.63
2023-05-04T17:46:43.254Z,36.91
2023-05-04T17:49:10.581Z,37.20
2023-05-04T17:51:37.426Z,37.56
2023-05-04T17:54:03.991Z,38.22
2023-05-04T17:56:30.763Z,38.42
2023-05-04T17:58:57.128Z,38.15
2023-05-04T18:01:26.859Z,38.42
2023-05-04T18:03:53.996Z,38.54
2023-05-04T18:06:20.476Z,38.81
2023-05-04T18:08:46.973Z,39.02
2023-05-04T18:11:13.487Z,39.40
2023-05-04T18:13:39.915Z,39.49
2023-05-04T18:16:07.364Z,39.68
2023-05-04T18:18:33.830Z,40.06
2023-05-04T18:21:01.340Z,40.46
2023-05-04T18:23:28.383Z,40.60
2023-05-04T18:25:55.551Z,40.50
2023-05-04T18:28:22.300Z,40.83
2023-05-04T18:30:48.967Z,40.95
2023-05-04T18:33:15.400Z,41.23
2023-05-04T18:35:41.951Z,41.66
2023-05-04T18:38:08.396Z,41.80
2023-05-04T18:40:34.897Z,41.95
2023-05-04T18:43:03.628Z,42.39
2023-05-04T18:45:30.072Z,42.60
2023-05-04T18:47:56.850Z,42.72
2023-05-04T18:50:23.534Z,42.98
2023-05-04T18:52:50.221Z,43.13
2023-05-04T18:55:16.722Z,43.19
2023-05-04T18:57:43.659Z,43.69
2023-05-04T19:00:11.635Z,43.73
2023-05-04T19:02:38.504Z,44.21
2023-05-04T19:05:05.547Z,44.14
2023-05-04T19:07:32.615Z,44.21
2023-05-04T19:10:00.073Z,44.46
2023-05-04T19:12:27.135Z,44.54
2023-05-04T19:14:54.578Z,44.56
2023-05-04T19:17:21.182Z,44.76
2023-05-04T19:19:47.625Z,44.69
2023-05-04T19:22:15.789Z,44.70
2023-05-04T19:24:42.306Z,44.84
2023-05-04T19:27:09.369Z,44.88
2023-05-04T19:29:36.162Z,45.26
2023-05-04T19:32:12.137Z,45.22
2023-05-04T19:34:46.655Z,45.51
2023-05-04T19:37:13.337Z,45.63
2023-05-04T19:39:40.111Z,46.08
2023-05-04T19:42:06.550Z,46.04
2023-05-04T19:44:33.273Z,46.26
2023-05-04T19:47:01.778Z,46.46
2023-05-04T19:49:28.352Z,46.68
2023-05-04T19:51:54.872Z,47.08
2023-05-04T19:54:21.274Z,47.23
2023-05-04T19:56:47.971Z,47.41
2023-05-04T19:59:15.086Z,47.45
2023-05-04T20:01:43.791Z,47.78
2023-05-04T20:04:10.796Z,47.89
2023-05-04T20:06:37.420Z,47.93
2023-05-04T20:09:04.124Z,47.99
2023-05-04T20:11:30.873Z,48.17
2023-05-04T20:13:57.623Z,48.21
2023-05-04T20:16:24.153Z,48.12
2023-05-04T20:18:50.918Z,48.11
2023-05-04T20:21:17.670Z,48.24
2023-05-04T20:23:44.368Z,48.36
2023-05-04T20:26:10.818Z,48.34
2023-05-04T20:28:37.512Z,48.54
2023-05-04T20:31:04.997Z,48.60
2023-05-04T20:33:31.431Z,48.57
2023-05-04T20:35:58.270Z,48.38
2023-05-04T20:38:25.460Z,48.48
2023-05-04T20:40:52.685Z,48.21
2023-05-04T20:43:19.805Z,48.25
2023-05-04T20:45:48.838Z,47.99
2023-05-04T20:48:15.268Z,48.09
2023-05-04T20:50:42.615Z,48.12
2023-05-04T20:53:09.019Z,48.54
2023-05-04T20:55:36.707Z,48.43
2023-05-04T20:58:03.196Z,48.50
2023-05-04T21:00:31.860Z,48.59
2023-05-04T21:03:00.177Z,48.80
2023-05-04T21:05:27.995Z,49.12
2023-05-04T21:07:54.632Z,49.24
2023-05-04T21:10:21.179Z,49.56
2023-05-04T21:12:49.085Z,49.76
2023-05-04T21:15:17.820Z,50.14
2023-05-04T21:17:44.526Z,50.00
2023-05-04T21:20:11.149Z,50.34
2023-05-04T21:22:37.577Z,50.67
2023-05-04T21:25:04.587Z,50.94
2023-05-04T21:27:31.038Z,51.11
2023-05-04T21:29:58.420Z,51.29
2023-05-04T21:32:25.145Z,51.47
2023-05-04T21:34:52.628Z,51.77
2023-05-04T21:37:19.603Z,52.18
2023-05-04T21:39:46.557Z,52.24
2023-05-04T21:42:13.307Z,52.41
2023-05-04T21:44:39.752Z,52.53
2023-05-04T21:47:07.489Z,52.88
2023-05-04T21:49:34.209Z,52.71
2023-05-04T21:52:00.747Z,52.94
2023-05-04T21:54:27.488Z,53.16
2023-05-04T21:56:54.145Z,53.47
2023-05-04T21:59:20.712Z,53.39
2023-05-04T22:01:47.422Z,53.45
2023-05-04T22:04:15.674Z,53.59
2023-05-04T22:06:42.053Z,53.84
2023-05-04T22:09:09.008Z,54.20
2023-05-04T22:11:36.020Z,54.96
2023-05-04T22:14:03.023Z,54.73
2023-05-04T22:16:29.469Z,55.28
2023-05-04T22:18:56.221Z,55.55
2023-05-04T22:21:22.698Z,55.72
2023-05-04T22:23:49.395Z,55.43
2023-05-04T22:26:15.973Z,55.33
2023-05-04T22:28:42.449Z,55.62
2023-05-04T22:31:09.037Z,55.90
2023-05-04T22:33:36.670Z,55.87
2023-05-04T22:36:03.354Z,56.24
2023-05-04T22:38:32.430Z,55.79
2023-05-04T22:40:59.164Z,55.92
2023-05-04T22:43:26.191Z,56.41
2023-05-04T22:45:52.974Z,56.56
2023-05-04T22:48:20.080Z,56.56
2023-05-04T22:50:47.108Z,56.81
2023-05-04T22:53:15.343Z,56.75
2023-05-04T22:55:41.816Z,57.04
2023-05-04T22:58:08.815Z,56.59
2023-05-04T23:00:35.397Z,56.81
2023-05-04T23:03:02.211Z,57.93
2023-05-04T23:05:29.114Z,57.72
2023-05-04T23:07:55.498Z,57.57
2023-05-04T23:10:22.252Z,57.69
2023-05-04T23:12:48.980Z,57.61
2023-05-04T23:15:15.711Z,58.30
2023-05-04T23:17:42.215Z,58.23
2023-05-04T23:20:10.326Z,57.83
2023-05-04T23:22:37.214Z,57.95
2023-05-04T23:25:04.557Z,57.95
2023-05-04T23:27:31.260Z,57.84
2023-05-04T23:29:57.925Z,58.19
2023-05-04T23:32:25.211Z,58.20
2023-05-04T23:34:51.939Z,57.99
2023-05-04T23:37:18.617Z,58.49
2023-05-04T23:39:47.018Z,58.43
2023-05-04T23:42:13.734Z,58.84
2023-05-04T23:44:40.751Z,58.85
2023-05-04T23:47:07.943Z,58.66
2023-05-04T23:49:34.609Z,58.87
2023-05-04T23:52:01.096Z,58.37
2023-05-04T23:54:27.576Z,58.76
2023-05-04T23:56:55.291Z,58.48
2023-05-04T23:59:22.436Z,58.37
